Terminal Aerodrome Forecast
Issued by NWS

Home | Current Version | Previous Version | Text Only | Print | Product List | Glossary On
Versions: 1 2 3 4 5 6 7 8 9 10 11 12 13 14 15 16 17 18 19 20 21 22 23 24 25 26 27 28 29 30 31 32 33
000
FTUS43 KMKX 061728
TAFUES
TAF
KUES 061728Z 0618/0718 19012KT 6SM TSRA BKN080CB
     FM061900 20011G18KT P6SM VCSH BKN080
     FM070000 21008KT 6SM BR VCTS BKN090CB
     FM070200 25006KT 6SM -SHRA OVC060
     FM070600 25008KT 6SM BR OVC008
     FM070800 31009KT 6SM BR OVC008
     FM070900 32009KT P6SM OVC008
     FM071100 35009KT P6SM BKN015
     FM071300 36010KT P6SM BKN035
     FM071500 01011KT P6SM SCT200=

USA.gov is the U.S. government's official web portal to all federal, state and local government web resources and services.